Impacts TAF Board
For situational awareness. Not to be used for flight planning purposes.
IDs:

KDHT - Dalhart Muni, TX, US

Issued at 1127 UTC 30 Oct 2020
Updated at 1612 UTC 30 Oct 2020
Potential Impact None Slight Moderate High
Time1553Z 30/17Z 30/18Z 30/19Z 30/20Z 30/21Z 30/22Z 30/23Z 31/00Z 31/01Z 31/02Z 31/03Z 31/04Z 31/05Z>>
Type OBS PRVL PRVL PRVL PRVL PRVL PRVL PRVL PRVL PRVL PRVL PRVL PRVL PRVL
VIS 10 >6 >6 >6 >6 >6 >6 >6 >6 >6 >6 >6 >6 >6
CIG -- -- -- -- -- -- -- -- -- -- -- -- -- --
Cover CLR SCT SCT SCT SCT SCT SCT SCT SCT SCT SCT SCT SCT SCT
FltCat VFR VFR VFR VFR VFR VFR VFR VFR VFR VFR VFR VFR VFR VFR
WX -- -- -- -- -- -- -- -- -- -- -- -- -- --
WDir 190 210 210 210 210 210 210 210 210 210 210 210 210 210
WSpd 9 11 11 11 11 11 11 11 11 11 11 11 11 11
WGst -- -- -- -- -- -- -- -- -- -- -- -- -- --
Raw TAF
KDHT 301127Z 3012/3112 21011KT P6SM SCT250

Raw METAR
KDHT 301553Z AUTO 19009KT 10SM CLR 08/04 A3024 RMK AO2 SLP235 T00830039
KDHT 301453Z AUTO 23005KT 10SM CLR 05/02 A3025 RMK AO2 SLP241 T00500017 53007
KDHT 301353Z AUTO 29004KT 10SM CLR 01/M02 A3024 RMK AO2 SLP242 T00111017

METAR Board
Radar Display
Forecast Discussion
For situational awareness. Not to be used for flight planning purposes.